Bethlehem, NH (03574)

10:23 PM EDT on September 27, 2016 (GMT -0400)
Spruce Road | | Change Station

Elev 1493 ft 44.28 °N, 71.65 °W | Updated 4 seconds ago

Clear
Clear
49.8 °F
Feels Like 50 °F
N
0.0
Wind Variable Wind from SE

Today
High -- | Low -- °F
--% Chance of Precip.
Yesterday
High -- | Low -- °F
Precip. -- in
Pressure 30.03 in
Visibility 10.0 miles
Clouds Clear
Windchill 50 °F
Dew Point 48 °F
Humidity 93%
Rainfall 0.46 in
Snow Depth Not available.
6:40 AM 6:33 PM
Waning Crescent, 8% visible
METAR KHIE 280152Z AUTO 00000KT 10SM CLR 07/06 A3001 RMK AO2 SLP167 T00720056
Pressure 30.03 in
Visibility 10.0 miles
Clouds Clear
Windchill 50 °F
Dew Point 48 °F
Humidity 93%
Rainfall 0.46 in
Snow Depth Not available.
6:40 AM 6:33 PM
Waning Crescent, 8% visible
METAR KHIE 280152Z AUTO 00000KT 10SM CLR 07/06 A3001 RMK AO2 SLP167 T00720056

10-Day Weather Forecast

Almanac

Astronomy

Sep. 27, 2016 Rise Set
Actual Time
Civil Twilight
Nautical Twilight
Astronomical Twilight
Moon
Length of Visible Light
Length of Day
Tomorrow will be .
, % of the Moon is Illuminated

Today's Extremes

State Highs State Lows

Community

WunderPhotos

Upload Photos

1,942,189 photos uploaded!

WunderBlog® & News

Nearby

Air Quality

  Air Quality AQ Index Pollutant
Not available.

Snow Depth

Station Depth Elevation

Earthquake Activity

City Distance Mag. Time & Date
Minimum magnitude displayed is 2.5.

Coastal Water Temperatures

Place Temperature

Stations

Nearby Weather Stations

Station Location Temp. Windchill Dew Point Humidity Wind Precip. Elev Updated Type
                   

Watches & Warnings

There are currently no watches in effect.